sensor_id;sensor_type;location;lat;lon;timestamp;P1;durP1;ratioP1;P2;durP2;ratioP2
11006;SDS011;8186;57.652;11.968;2024-01-10T00:00:34;5.73;;;4.90;;
11006;SDS011;8186;57.652;11.968;2024-01-10T00:03:01;5.80;;;5.20;;
11006;SDS011;8186;57.652;11.968;2024-01-10T00:05:28;6.60;;;5.23;;
11006;SDS011;8186;57.652;11.968;2024-01-10T00:07:55;7.13;;;5.40;;
11006;SDS011;8186;57.652;11.968;2024-01-10T00:10:21;7.53;;;5.67;;
11006;SDS011;8186;57.652;11.968;2024-01-10T00:12:48;5.43;;;4.87;;
11006;SDS011;8186;57.652;11.968;2024-01-10T00:15:15;7.97;;;5.23;;
11006;SDS011;8186;57.652;11.968;2024-01-10T00:17:43;6.00;;;5.40;;
11006;SDS011;8186;57.652;11.968;2024-01-10T00:20:10;7.97;;;5.47;;
11006;SDS011;8186;57.652;11.968;2024-01-10T00:22:37;7.03;;;5.60;;
11006;SDS011;8186;57.652;11.968;2024-01-10T00:25:04;5.43;;;4.93;;
11006;SDS011;8186;57.652;11.968;2024-01-10T00:27:31;7.07;;;5.10;;
11006;SDS011;8186;57.652;11.968;2024-01-10T00:29:57;6.10;;;5.50;;
11006;SDS011;8186;57.652;11.968;2024-01-10T00:32:24;6.10;;;5.50;;
11006;SDS011;8186;57.652;11.968;2024-01-10T00:34:52;7.63;;;5.73;;
11006;SDS011;8186;57.652;11.968;2024-01-10T00:37:19;6.37;;;5.37;;
11006;SDS011;8186;57.652;11.968;2024-01-10T00:39:46;6.43;;;5.10;;
11006;SDS011;8186;57.652;11.968;2024-01-10T00:42:12;6.23;;;5.03;;
11006;SDS011;8186;57.652;11.968;2024-01-10T00:44:39;7.20;;;5.30;;
11006;SDS011;8186;57.652;11.968;2024-01-10T00:47:06;6.87;;;5.37;;
11006;SDS011;8186;57.652;11.968;2024-01-10T00:49:33;7.40;;;5.90;;
11006;SDS011;8186;57.652;11.968;2024-01-10T00:52:01;6.27;;;5.67;;
11006;SDS011;8186;57.652;11.968;2024-01-10T00:54:28;6.13;;;5.13;;
11006;SDS011;8186;57.652;11.968;2024-01-10T00:56:55;5.83;;;5.30;;
11006;SDS011;8186;57.652;11.968;2024-01-10T00:59:21;6.90;;;5.97;;
11006;SDS011;8186;57.652;11.968;2024-01-10T01:01:48;6.23;;;5.63;;
11006;SDS011;8186;57.652;11.968;2024-01-10T01:04:15;5.33;;;4.60;;
11006;SDS011;8186;57.652;11.968;2024-01-10T01:06:41;8.00;;;5.03;;
11006;SDS011;8186;57.652;11.968;2024-01-10T01:09:10;7.37;;;5.83;;
11006;SDS011;8186;57.652;11.968;2024-01-10T01:11:38;6.43;;;5.70;;
11006;SDS011;8186;57.652;11.968;2024-01-10T01:14:04;10.50;;;5.83;;
11006;SDS011;8186;57.652;11.968;2024-01-10T01:16:32;8.03;;;6.10;;
11006;SDS011;8186;57.652;11.968;2024-01-10T01:18:59;7.60;;;5.80;;
11006;SDS011;8186;57.652;11.968;2024-01-10T01:21:26;8.03;;;6.33;;
11006;SDS011;8186;57.652;11.968;2024-01-10T01:23:52;8.90;;;6.70;;
11006;SDS011;8186;57.652;11.968;2024-01-10T01:26:21;7.60;;;6.73;;
11006;SDS011;8186;57.652;11.968;2024-01-10T01:28:48;7.93;;;6.63;;
11006;SDS011;8186;57.652;11.968;2024-01-10T01:31:15;10.87;;;7.40;;
11006;SDS011;8186;57.652;11.968;2024-01-10T01:33:41;7.67;;;6.63;;
11006;SDS011;8186;57.652;11.968;2024-01-10T01:36:08;8.47;;;6.40;;
11006;SDS011;8186;57.652;11.968;2024-01-10T01:38:35;8.80;;;6.80;;
11006;SDS011;8186;57.652;11.968;2024-01-10T01:41:02;9.43;;;7.37;;
11006;SDS011;8186;57.652;11.968;2024-01-10T01:43:32;8.83;;;7.30;;
11006;SDS011;8186;57.652;11.968;2024-01-10T01:46:00;7.10;;;6.07;;
11006;SDS011;8186;57.652;11.968;2024-01-10T01:48:27;8.50;;;7.00;;
11006;SDS011;8186;57.652;11.968;2024-01-10T01:50:55;8.67;;;7.43;;
11006;SDS011;8186;57.652;11.968;2024-01-10T01:53:23;10.33;;;7.40;;
11006;SDS011;8186;57.652;11.968;2024-01-10T01:55:50;7.67;;;6.03;;
11006;SDS011;8186;57.652;11.968;2024-01-10T01:58:17;7.73;;;6.40;;
11006;SDS011;8186;57.652;11.968;2024-01-10T02:00:45;8.13;;;6.80;;
11006;SDS011;8186;57.652;11.968;2024-01-10T02:03:12;6.30;;;5.70;;
11006;SDS011;8186;57.652;11.968;2024-01-10T02:05:39;8.37;;;5.97;;
11006;SDS011;8186;57.652;11.968;2024-01-10T02:08:06;6.77;;;6.07;;
11006;SDS011;8186;57.652;11.968;2024-01-10T02:10:33;8.90;;;6.57;;
11006;SDS011;8186;57.652;11.968;2024-01-10T02:13:00;7.23;;;6.00;;
11006;SDS011;8186;57.652;11.968;2024-01-10T02:15:27;6.33;;;5.60;;
11006;SDS011;8186;57.652;11.968;2024-01-10T02:17:55;7.97;;;6.27;;
11006;SDS011;8186;57.652;11.968;2024-01-10T02:20:22;8.07;;;6.23;;
11006;SDS011;8186;57.652;11.968;2024-01-10T02:22:49;7.27;;;5.63;;
11006;SDS011;8186;57.652;11.968;2024-01-10T02:25:17;8.20;;;7.10;;
11006;SDS011;8186;57.652;11.968;2024-01-10T02:27:45;8.43;;;6.40;;
11006;SDS011;8186;57.652;11.968;2024-01-10T02:30:11;7.80;;;6.67;;
11006;SDS011;8186;57.652;11.968;2024-01-10T02:32:38;8.43;;;7.50;;
11006;SDS011;8186;57.652;11.968;2024-01-10T02:35:06;9.47;;;6.97;;
11006;SDS011;8186;57.652;11.968;2024-01-10T02:37:33;7.87;;;6.77;;
11006;SDS011;8186;57.652;11.968;2024-01-10T02:40:00;11.17;;;8.30;;
11006;SDS011;8186;57.652;11.968;2024-01-10T02:42:29;10.57;;;8.13;;
11006;SDS011;8186;57.652;11.968;2024-01-10T02:44:56;10.47;;;7.90;;
11006;SDS011;8186;57.652;11.968;2024-01-10T02:47:22;9.13;;;7.60;;
11006;SDS011;8186;57.652;11.968;2024-01-10T02:49:49;12.37;;;8.80;;
11006;SDS011;8186;57.652;11.968;2024-01-10T02:52:16;10.60;;;8.57;;
11006;SDS011;8186;57.652;11.968;2024-01-10T02:54:44;11.87;;;9.37;;
11006;SDS011;8186;57.652;11.968;2024-01-10T02:57:11;13.00;;;9.80;;
11006;SDS011;8186;57.652;11.968;2024-01-10T02:59:40;15.73;;;10.37;;
11006;SDS011;8186;57.652;11.968;2024-01-10T03:02:06;14.27;;;10.77;;
11006;SDS011;8186;57.652;11.968;2024-01-10T03:04:33;17.10;;;11.70;;
11006;SDS011;8186;57.652;11.968;2024-01-10T03:07:00;21.17;;;10.63;;
11006;SDS011;8186;57.652;11.968;2024-01-10T03:09:27;16.93;;;11.97;;
11006;SDS011;8186;57.652;11.968;2024-01-10T03:11:54;15.03;;;11.20;;
11006;SDS011;8186;57.652;11.968;2024-01-10T03:14:21;20.30;;;12.93;;
11006;SDS011;8186;57.652;11.968;2024-01-10T03:16:49;19.23;;;12.90;;
11006;SDS011;8186;57.652;11.968;2024-01-10T03:19:16;25.47;;;13.23;;
11006;SDS011;8186;57.652;11.968;2024-01-10T03:21:43;33.53;;;13.07;;
11006;SDS011;8186;57.652;11.968;2024-01-10T03:24:09;17.30;;;12.77;;
11006;SDS011;8186;57.652;11.968;2024-01-10T03:26:36;25.30;;;11.93;;
11006;SDS011;8186;57.652;11.968;2024-01-10T03:29:03;31.43;;;12.50;;
11006;SDS011;8186;57.652;11.968;2024-01-10T03:31:30;18.33;;;12.43;;
11006;SDS011;8186;57.652;11.968;2024-01-10T03:33:58;21.50;;;12.90;;
11006;SDS011;8186;57.652;11.968;2024-01-10T03:36:25;17.63;;;12.23;;
11006;SDS011;8186;57.652;11.968;2024-01-10T03:38:52;21.00;;;13.43;;
11006;SDS011;8186;57.652;11.968;2024-01-10T03:41:19;20.17;;;12.17;;
11006;SDS011;8186;57.652;11.968;2024-01-10T03:43:47;31.00;;;11.93;;
11006;SDS011;8186;57.652;11.968;2024-01-10T03:46:14;42.90;;;12.23;;
11006;SDS011;8186;57.652;11.968;2024-01-10T03:48:42;18.47;;;11.30;;
11006;SDS011;8186;57.652;11.968;2024-01-10T03:51:14;25.70;;;10.43;;
11006;SDS011;8186;57.652;11.968;2024-01-10T03:53:42;17.63;;;11.73;;
11006;SDS011;8186;57.652;11.968;2024-01-10T03:56:09;15.67;;;11.10;;
11006;SDS011;8186;57.652;11.968;2024-01-10T03:58:36;47.23;;;20.23;;
11006;SDS011;8186;57.652;11.968;2024-01-10T04:01:03;31.73;;;18.83;;
11006;SDS011;8186;57.652;11.968;2024-01-10T04:03:30;30.57;;;14.67;;
11006;SDS011;8186;57.652;11.968;2024-01-10T04:05:57;25.87;;;12.90;;
11006;SDS011;8186;57.652;11.968;2024-01-10T04:08:26;32.07;;;12.07;;
11006;SDS011;8186;57.652;11.968;2024-01-10T04:10:52;23.20;;;11.67;;
11006;SDS011;8186;57.652;11.968;2024-01-10T04:13:19;28.37;;;17.10;;
11006;SDS011;8186;57.652;11.968;2024-01-10T04:15:46;34.47;;;18.10;;
11006;SDS011;8186;57.652;11.968;2024-01-10T04:18:14;22.47;;;12.97;;
11006;SDS011;8186;57.652;11.968;2024-01-10T04:20:40;40.20;;;14.00;;
11006;SDS011;8186;57.652;11.968;2024-01-10T04:23:07;35.77;;;12.93;;
11006;SDS011;8186;57.652;11.968;2024-01-10T04:25:36;22.67;;;12.40;;
11006;SDS011;8186;57.652;11.968;2024-01-10T04:28:02;23.30;;;10.40;;
11006;SDS011;8186;57.652;11.968;2024-01-10T04:30:29;37.47;;;9.37;;
11006;SDS011;8186;57.652;11.968;2024-01-10T04:32:56;12.60;;;7.60;;
11006;SDS011;8186;57.652;11.968;2024-01-10T04:35:23;14.47;;;7.40;;
11006;SDS011;8186;57.652;11.968;2024-01-10T04:37:50;16.27;;;6.83;;
11006;SDS011;8186;57.652;11.968;2024-01-10T04:40:16;25.30;;;6.70;;
11006;SDS011;8186;57.652;11.968;2024-01-10T04:42:45;15.17;;;7.17;;
11006;SDS011;8186;57.652;11.968;2024-01-10T04:45:12;22.83;;;7.13;;
11006;SDS011;8186;57.652;11.968;2024-01-10T04:47:38;12.13;;;6.90;;
11006;SDS011;8186;57.652;11.968;2024-01-10T04:50:05;18.77;;;7.43;;
11006;SDS011;8186;57.652;11.968;2024-01-10T04:52:33;17.63;;;7.20;;
11006;SDS011;8186;57.652;11.968;2024-01-10T04:55:00;16.87;;;6.80;;
11006;SDS011;8186;57.652;11.968;2024-01-10T04:57:28;18.77;;;7.80;;
11006;SDS011;8186;57.652;11.968;2024-01-10T04:59:56;23.67;;;7.80;;
11006;SDS011;8186;57.652;11.968;2024-01-10T05:02:22;19.87;;;8.20;;
11006;SDS011;8186;57.652;11.968;2024-01-10T05:04:49;19.03;;;7.00;;
11006;SDS011;8186;57.652;11.968;2024-01-10T05:07:16;16.13;;;6.87;;
11006;SDS011;8186;57.652;11.968;2024-01-10T05:09:43;24.80;;;8.13;;
11006;SDS011;8186;57.652;11.968;2024-01-10T05:12:09;15.00;;;7.20;;
11006;SDS011;8186;57.652;11.968;2024-01-10T05:14:36;17.73;;;8.47;;
11006;SDS011;8186;57.652;11.968;2024-01-10T05:17:04;15.87;;;6.53;;
11006;SDS011;8186;57.652;11.968;2024-01-10T05:19:31;18.37;;;6.70;;
11006;SDS011;8186;57.652;11.968;2024-01-10T05:21:58;17.47;;;8.23;;
11006;SDS011;8186;57.652;11.968;2024-01-10T05:24:25;23.10;;;9.27;;
11006;SDS011;8186;57.652;11.968;2024-01-10T05:26:51;20.97;;;7.47;;
11006;SDS011;8186;57.652;11.968;2024-01-10T05:29:18;19.80;;;8.13;;
11006;SDS011;8186;57.652;11.968;2024-01-10T05:31:47;14.80;;;6.90;;
11006;SDS011;8186;57.652;11.968;2024-01-10T05:34:15;52.80;;;9.53;;
11006;SDS011;8186;57.652;11.968;2024-01-10T05:36:42;24.93;;;8.40;;
11006;SDS011;8186;57.652;11.968;2024-01-10T05:39:09;30.77;;;7.80;;
11006;SDS011;8186;57.652;11.968;2024-01-10T05:41:36;21.70;;;8.70;;
11006;SDS011;8186;57.652;11.968;2024-01-10T05:44:05;24.10;;;7.23;;
11006;SDS011;8186;57.652;11.968;2024-01-10T05:46:31;20.67;;;7.77;;
11006;SDS011;8186;57.652;11.968;2024-01-10T05:48:58;46.33;;;9.87;;
11006;SDS011;8186;57.652;11.968;2024-01-10T05:51:26;34.67;;;9.67;;
11006;SDS011;8186;57.652;11.968;2024-01-10T05:53:53;30.17;;;11.23;;
11006;SDS011;8186;57.652;11.968;2024-01-10T05:56:20;36.40;;;8.63;;
11006;SDS011;8186;57.652;11.968;2024-01-10T05:58:48;43.00;;;8.50;;
11006;SDS011;8186;57.652;11.968;2024-01-10T06:01:16;50.23;;;9.77;;
11006;SDS011;8186;57.652;11.968;2024-01-10T06:03:43;39.93;;;8.47;;
11006;SDS011;8186;57.652;11.968;2024-01-10T06:06:10;57.67;;;12.10;;
11006;SDS011;8186;57.652;11.968;2024-01-10T06:08:38;39.90;;;10.23;;
11006;SDS011;8186;57.652;11.968;2024-01-10T06:11:04;62.10;;;10.43;;
11006;SDS011;8186;57.652;11.968;2024-01-10T06:13:34;93.37;;;13.27;;
11006;SDS011;8186;57.652;11.968;2024-01-10T06:16:00;58.60;;;10.03;;
11006;SDS011;8186;57.652;11.968;2024-01-10T06:18:28;39.33;;;9.37;;
11006;SDS011;8186;57.652;11.968;2024-01-10T06:20:54;84.67;;;11.60;;
11006;SDS011;8186;57.652;11.968;2024-01-10T06:23:21;56.63;;;11.57;;
11006;SDS011;8186;57.652;11.968;2024-01-10T06:25:49;61.60;;;12.97;;
11006;SDS011;8186;57.652;11.968;2024-01-10T06:28:16;37.17;;;9.33;;
11006;SDS011;8186;57.652;11.968;2024-01-10T06:30:43;35.43;;;9.47;;
11006;SDS011;8186;57.652;11.968;2024-01-10T06:33:09;46.60;;;10.23;;
11006;SDS011;8186;57.652;11.968;2024-01-10T06:35:36;63.57;;;12.53;;
11006;SDS011;8186;57.652;11.968;2024-01-10T06:38:03;39.97;;;10.37;;
11006;SDS011;8186;57.652;11.968;2024-01-10T06:40:30;46.33;;;10.17;;
11006;SDS011;8186;57.652;11.968;2024-01-10T06:42:58;53.17;;;10.50;;
11006;SDS011;8186;57.652;11.968;2024-01-10T06:45:25;30.03;;;10.37;;
11006;SDS011;8186;57.652;11.968;2024-01-10T06:47:52;39.57;;;10.80;;
11006;SDS011;8186;57.652;11.968;2024-01-10T06:50:19;31.77;;;9.50;;
11006;SDS011;8186;57.652;11.968;2024-01-10T06:52:46;65.97;;;12.33;;
11006;SDS011;8186;57.652;11.968;2024-01-10T06:55:13;43.70;;;11.13;;
11006;SDS011;8186;57.652;11.968;2024-01-10T06:57:40;50.97;;;11.37;;
11006;SDS011;8186;57.652;11.968;2024-01-10T07:00:09;57.53;;;12.00;;
11006;SDS011;8186;57.652;11.968;2024-01-10T07:02:37;60.37;;;11.23;;
11006;SDS011;8186;57.652;11.968;2024-01-10T07:05:06;36.30;;;11.17;;
11006;SDS011;8186;57.652;11.968;2024-01-10T07:07:34;38.93;;;12.20;;
11006;SDS011;8186;57.652;11.968;2024-01-10T07:10:01;36.33;;;10.73;;
11006;SDS011;8186;57.652;11.968;2024-01-10T07:12:30;48.67;;;11.10;;
11006;SDS011;8186;57.652;11.968;2024-01-10T07:14:56;37.00;;;11.40;;
11006;SDS011;8186;57.652;11.968;2024-01-10T07:17:25;45.60;;;11.60;;
11006;SDS011;8186;57.652;11.968;2024-01-10T07:19:51;27.97;;;10.83;;
11006;SDS011;8186;57.652;11.968;2024-01-10T07:22:18;62.90;;;13.63;;
11006;SDS011;8186;57.652;11.968;2024-01-10T07:24:45;41.67;;;13.10;;
11006;SDS011;8186;57.652;11.968;2024-01-10T07:27:12;41.10;;;12.30;;
11006;SDS011;8186;57.652;11.968;2024-01-10T07:29:39;42.90;;;14.33;;
11006;SDS011;8186;57.652;11.968;2024-01-10T07:32:06;33.80;;;12.10;;
11006;SDS011;8186;57.652;11.968;2024-01-10T07:34:37;36.23;;;12.47;;
11006;SDS011;8186;57.652;11.968;2024-01-10T07:37:04;32.83;;;12.00;;
11006;SDS011;8186;57.652;11.968;2024-01-10T07:39:31;37.27;;;11.63;;
11006;SDS011;8186;57.652;11.968;2024-01-10T07:41:58;58.73;;;13.27;;
11006;SDS011;8186;57.652;11.968;2024-01-10T07:44:27;42.63;;;12.93;;
11006;SDS011;8186;57.652;11.968;2024-01-10T07:46:54;54.23;;;14.50;;
11006;SDS011;8186;57.652;11.968;2024-01-10T07:49:21;32.00;;;13.27;;
11006;SDS011;8186;57.652;11.968;2024-01-10T07:51:50;48.60;;;13.23;;
11006;SDS011;8186;57.652;11.968;2024-01-10T07:54:17;51.17;;;14.33;;
11006;SDS011;8186;57.652;11.968;2024-01-10T07:56:44;37.17;;;12.77;;
11006;SDS011;8186;57.652;11.968;2024-01-10T07:59:10;75.87;;;15.80;;
11006;SDS011;8186;57.652;11.968;2024-01-10T08:01:39;38.63;;;12.60;;
11006;SDS011;8186;57.652;11.968;2024-01-10T08:04:06;35.93;;;13.57;;
11006;SDS011;8186;57.652;11.968;2024-01-10T08:06:33;48.50;;;14.73;;
11006;SDS011;8186;57.652;11.968;2024-01-10T08:09:02;57.70;;;14.83;;
11006;SDS011;8186;57.652;11.968;2024-01-10T08:11:29;66.37;;;17.23;;
11006;SDS011;8186;57.652;11.968;2024-01-10T08:13:56;54.50;;;14.30;;
11006;SDS011;8186;57.652;11.968;2024-01-10T08:16:23;59.53;;;14.63;;
11006;SDS011;8186;57.652;11.968;2024-01-10T08:18:50;54.70;;;15.37;;
11006;SDS011;8186;57.652;11.968;2024-01-10T08:21:16;54.53;;;14.67;;
11006;SDS011;8186;57.652;11.968;2024-01-10T08:23:44;39.00;;;14.57;;
11006;SDS011;8186;57.652;11.968;2024-01-10T08:26:12;42.50;;;15.33;;
11006;SDS011;8186;57.652;11.968;2024-01-10T08:28:39;39.27;;;14.07;;
11006;SDS011;8186;57.652;11.968;2024-01-10T08:31:07;41.43;;;14.70;;
11006;SDS011;8186;57.652;11.968;2024-01-10T08:33:34;98.63;;;17.00;;
11006;SDS011;8186;57.652;11.968;2024-01-10T08:36:01;65.20;;;18.40;;
11006;SDS011;8186;57.652;11.968;2024-01-10T08:38:28;55.60;;;15.70;;
11006;SDS011;8186;57.652;11.968;2024-01-10T08:40:55;55.07;;;17.90;;
11006;SDS011;8186;57.652;11.968;2024-01-10T08:43:23;89.27;;;16.37;;
11006;SDS011;8186;57.652;11.968;2024-01-10T08:45:49;37.70;;;13.37;;
11006;SDS011;8186;57.652;11.968;2024-01-10T08:48:16;42.73;;;14.67;;
11006;SDS011;8186;57.652;11.968;2024-01-10T08:50:43;52.10;;;18.48;;
11006;SDS011;8186;57.652;11.968;2024-01-10T08:53:10;38.43;;;14.93;;
11006;SDS011;8186;57.652;11.968;2024-01-10T08:55:37;41.57;;;15.03;;
11006;SDS011;8186;57.652;11.968;2024-01-10T08:58:03;27.43;;;13.90;;
11006;SDS011;8186;57.652;11.968;2024-01-10T09:00:32;25.37;;;11.93;;
11006;SDS011;8186;57.652;11.968;2024-01-10T09:02:59;22.77;;;10.77;;
11006;SDS011;8186;57.652;11.968;2024-01-10T09:05:26;19.60;;;10.67;;
11006;SDS011;8186;57.652;11.968;2024-01-10T09:07:52;20.20;;;11.20;;
11006;SDS011;8186;57.652;11.968;2024-01-10T09:10:19;19.40;;;9.73;;
11006;SDS011;8186;57.652;11.968;2024-01-10T09:12:47;18.33;;;10.20;;
11006;SDS011;8186;57.652;11.968;2024-01-10T09:15:14;18.40;;;10.83;;
11006;SDS011;8186;57.652;11.968;2024-01-10T09:17:43;18.93;;;10.80;;
11006;SDS011;8186;57.652;11.968;2024-01-10T09:20:10;18.27;;;10.47;;
11006;SDS011;8186;57.652;11.968;2024-01-10T09:22:37;17.27;;;10.57;;
11006;SDS011;8186;57.652;11.968;2024-01-10T09:25:04;16.10;;;9.87;;
11006;SDS011;8186;57.652;11.968;2024-01-10T09:27:32;14.87;;;8.33;;
11006;SDS011;8186;57.652;11.968;2024-01-10T09:29:59;15.53;;;9.23;;
11006;SDS011;8186;57.652;11.968;2024-01-10T09:32:27;14.70;;;9.27;;
11006;SDS011;8186;57.652;11.968;2024-01-10T09:34:55;14.60;;;9.07;;
11006;SDS011;8186;57.652;11.968;2024-01-10T09:37:23;17.73;;;10.00;;
11006;SDS011;8186;57.652;11.968;2024-01-10T09:39:50;15.70;;;9.30;;
11006;SDS011;8186;57.652;11.968;2024-01-10T09:42:17;16.70;;;8.80;;
11006;SDS011;8186;57.652;11.968;2024-01-10T09:44:46;14.67;;;9.33;;
11006;SDS011;8186;57.652;11.968;2024-01-10T09:47:13;12.93;;;8.30;;
11006;SDS011;8186;57.652;11.968;2024-01-10T09:49:42;14.37;;;8.57;;
11006;SDS011;8186;57.652;11.968;2024-01-10T09:52:11;13.57;;;8.43;;
11006;SDS011;8186;57.652;11.968;2024-01-10T09:54:44;13.47;;;8.73;;
11006;SDS011;8186;57.652;11.968;2024-01-10T09:57:12;13.57;;;8.37;;
11006;SDS011;8186;57.652;11.968;2024-01-10T09:59:39;12.97;;;9.00;;
11006;SDS011;8186;57.652;11.968;2024-01-10T10:02:08;13.30;;;7.70;;
11006;SDS011;8186;57.652;11.968;2024-01-10T10:04:35;12.60;;;8.50;;
11006;SDS011;8186;57.652;11.968;2024-01-10T10:07:04;14.77;;;9.40;;
11006;SDS011;8186;57.652;11.968;2024-01-10T10:09:32;15.30;;;8.93;;
11006;SDS011;8186;57.652;11.968;2024-01-10T10:11:59;14.90;;;9.30;;
11006;SDS011;8186;57.652;11.968;2024-01-10T10:14:28;14.20;;;8.80;;
11006;SDS011;8186;57.652;11.968;2024-01-10T10:16:55;13.73;;;9.33;;
11006;SDS011;8186;57.652;11.968;2024-01-10T10:19:22;15.67;;;9.47;;
11006;SDS011;8186;57.652;11.968;2024-01-10T10:21:49;15.57;;;9.17;;
11006;SDS011;8186;57.652;11.968;2024-01-10T10:24:16;17.77;;;9.23;;
11006;SDS011;8186;57.652;11.968;2024-01-10T10:26:44;18.57;;;9.30;;
11006;SDS011;8186;57.652;11.968;2024-01-10T10:29:11;20.40;;;9.03;;
11006;SDS011;8186;57.652;11.968;2024-01-10T10:31:38;19.07;;;10.27;;
11006;SDS011;8186;57.652;11.968;2024-01-10T10:34:05;21.00;;;10.47;;
11006;SDS011;8186;57.652;11.968;2024-01-10T10:36:32;18.37;;;9.50;;
11006;SDS011;8186;57.652;11.968;2024-01-10T10:38:59;18.13;;;10.03;;
11006;SDS011;8186;57.652;11.968;2024-01-10T10:41:28;17.73;;;9.87;;
11006;SDS011;8186;57.652;11.968;2024-01-10T10:43:58;14.17;;;8.57;;
11006;SDS011;8186;57.652;11.968;2024-01-10T10:46:26;14.47;;;9.47;;
11006;SDS011;8186;57.652;11.968;2024-01-10T10:48:53;16.63;;;9.73;;
11006;SDS011;8186;57.652;11.968;2024-01-10T10:51:24;13.57;;;8.80;;
11006;SDS011;8186;57.652;11.968;2024-01-10T10:53:54;15.93;;;9.43;;
11006;SDS011;8186;57.652;11.968;2024-01-10T10:56:21;19.33;;;10.37;;
11006;SDS011;8186;57.652;11.968;2024-01-10T10:58:49;21.23;;;12.00;;
11006;SDS011;8186;57.652;11.968;2024-01-10T11:01:18;17.40;;;10.13;;
11006;SDS011;8186;57.652;11.968;2024-01-10T11:03:45;17.20;;;10.17;;
11006;SDS011;8186;57.652;11.968;2024-01-10T11:06:13;19.33;;;11.53;;
11006;SDS011;8186;57.652;11.968;2024-01-10T11:08:40;20.80;;;12.10;;
11006;SDS011;8186;57.652;11.968;2024-01-10T11:11:15;17.13;;;11.27;;
11006;SDS011;8186;57.652;11.968;2024-01-10T11:13:51;18.27;;;11.07;;
11006;SDS011;8186;57.652;11.968;2024-01-10T11:16:28;19.77;;;12.57;;
11006;SDS011;8186;57.652;11.968;2024-01-10T11:19:13;19.60;;;13.37;;
11006;SDS011;8186;57.652;11.968;2024-01-10T11:21:52;23.57;;;14.63;;
11006;SDS011;8186;57.652;11.968;2024-01-10T11:24:24;21.60;;;13.83;;
11006;SDS011;8186;57.652;11.968;2024-01-10T11:26:53;20.30;;;13.57;;
11006;SDS011;8186;57.652;11.968;2024-01-10T11:29:33;22.73;;;14.17;;
11006;SDS011;8186;57.652;11.968;2024-01-10T11:32:01;23.87;;;14.13;;
11006;SDS011;8186;57.652;11.968;2024-01-10T11:34:28;22.07;;;13.93;;
11006;SDS011;8186;57.652;11.968;2024-01-10T11:37:11;23.77;;;13.13;;
11006;SDS011;8186;57.652;11.968;2024-01-10T11:39:40;21.00;;;11.60;;
11006;SDS011;8186;57.652;11.968;2024-01-10T11:42:08;21.53;;;12.80;;
11006;SDS011;8186;57.652;11.968;2024-01-10T11:44:46;21.80;;;13.07;;
11006;SDS011;8186;57.652;11.968;2024-01-10T11:47:15;21.23;;;11.53;;
11006;SDS011;8186;57.652;11.968;2024-01-10T11:49:53;19.93;;;11.97;;
11006;SDS011;8186;57.652;11.968;2024-01-10T11:52:21;18.10;;;10.53;;
11006;SDS011;8186;57.652;11.968;2024-01-10T11:54:48;17.90;;;10.87;;
11006;SDS011;8186;57.652;11.968;2024-01-10T11:57:19;17.80;;;10.13;;
11006;SDS011;8186;57.652;11.968;2024-01-10T11:59:47;18.23;;;9.50;;
11006;SDS011;8186;57.652;11.968;2024-01-10T12:02:18;18.27;;;10.93;;
11006;SDS011;8186;57.652;11.968;2024-01-10T12:04:45;14.73;;;10.20;;
11006;SDS011;8186;57.652;11.968;2024-01-10T12:07:13;14.93;;;8.93;;
11006;SDS011;8186;57.652;11.968;2024-01-10T12:09:40;18.00;;;9.53;;
11006;SDS011;8186;57.652;11.968;2024-01-10T12:12:07;17.93;;;10.37;;
11006;SDS011;8186;57.652;11.968;2024-01-10T12:14:34;18.23;;;10.60;;
11006;SDS011;8186;57.652;11.968;2024-01-10T12:17:02;13.90;;;10.40;;
11006;SDS011;8186;57.652;11.968;2024-01-10T12:19:31;16.03;;;9.90;;
11006;SDS011;8186;57.652;11.968;2024-01-10T12:21:58;13.27;;;9.70;;
11006;SDS011;8186;57.652;11.968;2024-01-10T12:24:27;13.80;;;8.87;;
11006;SDS011;8186;57.652;11.968;2024-01-10T12:26:55;14.63;;;9.73;;
11006;SDS011;8186;57.652;11.968;2024-01-10T12:29:22;12.37;;;9.27;;
11006;SDS011;8186;57.652;11.968;2024-01-10T12:31:50;12.23;;;9.30;;
11006;SDS011;8186;57.652;11.968;2024-01-10T12:34:17;12.37;;;7.93;;
11006;SDS011;8186;57.652;11.968;2024-01-10T12:36:47;13.43;;;9.47;;
11006;SDS011;8186;57.652;11.968;2024-01-10T12:39:14;17.23;;;9.93;;
11006;SDS011;8186;57.652;11.968;2024-01-10T12:41:42;14.83;;;10.30;;
11006;SDS011;8186;57.652;11.968;2024-01-10T12:44:10;32.73;;;10.23;;
11006;SDS011;8186;57.652;11.968;2024-01-10T12:46:47;39.40;;;9.20;;
11006;SDS011;8186;57.652;11.968;2024-01-10T12:49:16;72.63;;;11.53;;
11006;SDS011;8186;57.652;11.968;2024-01-10T12:51:42;53.27;;;10.37;;
11006;SDS011;8186;57.652;11.968;2024-01-10T12:54:10;57.00;;;10.33;;
11006;SDS011;8186;57.652;11.968;2024-01-10T12:56:37;18.43;;;9.27;;
11006;SDS011;8186;57.652;11.968;2024-01-10T12:59:04;24.00;;;7.73;;
11006;SDS011;8186;57.652;11.968;2024-01-10T13:01:31;27.60;;;8.80;;
11006;SDS011;8186;57.652;11.968;2024-01-10T13:03:58;23.60;;;7.73;;
11006;SDS011;8186;57.652;11.968;2024-01-10T13:06:24;11.23;;;7.50;;
11006;SDS011;8186;57.652;11.968;2024-01-10T13:08:51;15.53;;;8.20;;
11006;SDS011;8186;57.652;11.968;2024-01-10T13:11:21;33.00;;;9.63;;
11006;SDS011;8186;57.652;11.968;2024-01-10T13:13:48;25.03;;;8.77;;
11006;SDS011;8186;57.652;11.968;2024-01-10T13:16:15;15.60;;;8.07;;
11006;SDS011;8186;57.652;11.968;2024-01-10T13:18:42;29.20;;;8.33;;
11006;SDS011;8186;57.652;11.968;2024-01-10T13:21:09;13.97;;;8.40;;
11006;SDS011;8186;57.652;11.968;2024-01-10T13:23:35;12.40;;;6.77;;
11006;SDS011;8186;57.652;11.968;2024-01-10T13:26:02;48.13;;;11.17;;
11006;SDS011;8186;57.652;11.968;2024-01-10T13:28:31;59.70;;;8.37;;
11006;SDS011;8186;57.652;11.968;2024-01-10T13:30:57;18.73;;;7.00;;
11006;SDS011;8186;57.652;11.968;2024-01-10T13:33:24;18.30;;;7.73;;
11006;SDS011;8186;57.652;11.968;2024-01-10T13:35:51;11.13;;;6.60;;
11006;SDS011;8186;57.652;11.968;2024-01-10T13:38:18;17.37;;;6.87;;
11006;SDS011;8186;57.652;11.968;2024-01-10T13:40:45;13.93;;;6.83;;
11006;SDS011;8186;57.652;11.968;2024-01-10T13:43:12;12.50;;;7.37;;
11006;SDS011;8186;57.652;11.968;2024-01-10T13:45:41;18.57;;;8.67;;
11006;SDS011;8186;57.652;11.968;2024-01-10T13:48:09;32.73;;;14.57;;
11006;SDS011;8186;57.652;11.968;2024-01-10T13:50:36;44.07;;;12.20;;
11006;SDS011;8186;57.652;11.968;2024-01-10T13:53:03;35.13;;;12.93;;
11006;SDS011;8186;57.652;11.968;2024-01-10T13:55:30;30.83;;;17.43;;
11006;SDS011;8186;57.652;11.968;2024-01-10T13:57:57;53.23;;;22.30;;
11006;SDS011;8186;57.652;11.968;2024-01-10T14:00:24;43.40;;;19.53;;
11006;SDS011;8186;57.652;11.968;2024-01-10T14:02:53;36.40;;;10.03;;
11006;SDS011;8186;57.652;11.968;2024-01-10T14:05:25;16.57;;;8.33;;
11006;SDS011;8186;57.652;11.968;2024-01-10T14:07:54;11.87;;;8.37;;
11006;SDS011;8186;57.652;11.968;2024-01-10T14:10:22;63.93;;;25.97;;
11006;SDS011;8186;57.652;11.968;2024-01-10T14:12:49;62.57;;;26.83;;
11006;SDS011;8186;57.652;11.968;2024-01-10T14:15:16;74.40;;;31.67;;
11006;SDS011;8186;57.652;11.968;2024-01-10T14:17:43;71.17;;;28.53;;
11006;SDS011;8186;57.652;11.968;2024-01-10T14:20:11;55.00;;;25.13;;
11006;SDS011;8186;57.652;11.968;2024-01-10T14:22:38;56.97;;;24.40;;
11006;SDS011;8186;57.652;11.968;2024-01-10T14:25:07;34.03;;;17.00;;
11006;SDS011;8186;57.652;11.968;2024-01-10T14:27:35;26.43;;;14.77;;
11006;SDS011;8186;57.652;11.968;2024-01-10T14:30:04;28.80;;;15.17;;
11006;SDS011;8186;57.652;11.968;2024-01-10T14:32:33;39.77;;;13.60;;